Gimlet, Kentucky
Current Conditions -  °F | °C
As of 11:30 AM on Sunday 21 Dec 2014 (Local Time) from KSYM Reporting Station
Overcast Overcast  
Wind Chill: 30°   Ceiling: 1600
Heat Index: 36°   Visibility: 10mi
Dew Point: 27°   Wind: 7mph
Humidity: 70%   Direction: 70°ENE
Pressure: 30.3"   Gusts: NA
Location:  38.3543°N, 83.1837°W
Report Text: KSYM 211630Z AUTO 07006KT 10SM OVC016 02/M03 A3030 RMK AO2
Loading
Personal Weather Stations






























Interactive Weather Map New forecast layout! Learn more

10-Day Weather Forecast

Advertisements
Track Severe Weather on mobile